sensor_id;sensor_type;location;lat;lon;timestamp;P1;durP1;ratioP1;P2;durP2;ratioP2
52816;SDS011;38687;43.330;21.924;2023-04-30T00:00:03;13.80;;;9.93;;
52816;SDS011;38687;43.330;21.924;2023-04-30T00:02:33;15.75;;;9.77;;
52816;SDS011;38687;43.330;21.924;2023-04-30T00:04:58;16.17;;;9.05;;
52816;SDS011;38687;43.330;21.924;2023-04-30T00:07:23;13.93;;;9.32;;
52816;SDS011;38687;43.330;21.924;2023-04-30T00:09:49;13.88;;;9.32;;
52816;SDS011;38687;43.330;21.924;2023-04-30T00:12:15;19.08;;;11.07;;
52816;SDS011;38687;43.330;21.924;2023-04-30T00:14:40;18.48;;;10.82;;
52816;SDS011;38687;43.330;21.924;2023-04-30T00:17:06;19.48;;;12.35;;
52816;SDS011;38687;43.330;21.924;2023-04-30T00:19:31;18.95;;;11.02;;
52816;SDS011;38687;43.330;21.924;2023-04-30T00:21:57;17.40;;;10.18;;
52816;SDS011;38687;43.330;21.924;2023-04-30T00:24:25;16.73;;;10.75;;
52816;SDS011;38687;43.330;21.924;2023-04-30T00:26:51;17.77;;;11.18;;
52816;SDS011;38687;43.330;21.924;2023-04-30T00:29:16;18.80;;;11.10;;
52816;SDS011;38687;43.330;21.924;2023-04-30T00:31:42;17.40;;;11.02;;
52816;SDS011;38687;43.330;21.924;2023-04-30T00:34:07;15.35;;;9.85;;
52816;SDS011;38687;43.330;21.924;2023-04-30T00:36:32;14.80;;;8.85;;
52816;SDS011;38687;43.330;21.924;2023-04-30T00:38:58;14.30;;;8.48;;
52816;SDS011;38687;43.330;21.924;2023-04-30T00:41:24;11.70;;;7.68;;
52816;SDS011;38687;43.330;21.924;2023-04-30T00:43:50;13.27;;;8.40;;
52816;SDS011;38687;43.330;21.924;2023-04-30T00:46:15;13.13;;;8.40;;
52816;SDS011;38687;43.330;21.924;2023-04-30T00:48:40;11.88;;;7.75;;
52816;SDS011;38687;43.330;21.924;2023-04-30T00:51:06;12.90;;;7.20;;
52816;SDS011;38687;43.330;21.924;2023-04-30T00:53:32;12.73;;;8.38;;
52816;SDS011;38687;43.330;21.924;2023-04-30T00:55:57;13.15;;;8.35;;
52816;SDS011;38687;43.330;21.924;2023-04-30T00:58:23;11.90;;;7.50;;
52816;SDS011;38687;43.330;21.924;2023-04-30T01:00:48;12.32;;;7.28;;
52816;SDS011;38687;43.330;21.924;2023-04-30T01:03:14;12.73;;;7.28;;
52816;SDS011;38687;43.330;21.924;2023-04-30T01:05:40;10.02;;;6.38;;
52816;SDS011;38687;43.330;21.924;2023-04-30T01:08:05;9.43;;;7.15;;
52816;SDS011;38687;43.330;21.924;2023-04-30T01:10:35;9.45;;;7.40;;
52816;SDS011;38687;43.330;21.924;2023-04-30T01:13:28;9.23;;;6.30;;
52816;SDS011;38687;43.330;21.924;2023-04-30T01:16:08;10.40;;;6.93;;
52816;SDS011;38687;43.330;21.924;2023-04-30T01:19:24;12.57;;;7.38;;
52816;SDS011;38687;43.330;21.924;2023-04-30T01:21:31;14.38;;;7.80;;
52816;SDS011;38687;43.330;21.924;2023-04-30T01:24:14;11.48;;;7.18;;
52816;SDS011;38687;43.330;21.924;2023-04-30T01:29:29;10.27;;;7.20;;
52816;SDS011;38687;43.330;21.924;2023-04-30T01:31:54;9.43;;;6.25;;
52816;SDS011;38687;43.330;21.924;2023-04-30T01:34:20;7.63;;;6.35;;
52816;SDS011;38687;43.330;21.924;2023-04-30T01:39:47;10.75;;;6.55;;
52816;SDS011;38687;43.330;21.924;2023-04-30T01:42:20;9.18;;;7.53;;
52816;SDS011;38687;43.330;21.924;2023-04-30T01:50:28;10.82;;;7.05;;
52816;SDS011;38687;43.330;21.924;2023-04-30T01:52:59;13.50;;;8.45;;
52816;SDS011;38687;43.330;21.924;2023-04-30T01:55:40;12.75;;;8.20;;
52816;SDS011;38687;43.330;21.924;2023-04-30T01:58:14;14.70;;;8.77;;
52816;SDS011;38687;43.330;21.924;2023-04-30T02:00:40;13.27;;;8.20;;
52816;SDS011;38687;43.330;21.924;2023-04-30T02:03:05;13.35;;;8.38;;
52816;SDS011;38687;43.330;21.924;2023-04-30T02:05:31;14.52;;;8.45;;
52816;SDS011;38687;43.330;21.924;2023-04-30T02:07:57;11.68;;;7.57;;
52816;SDS011;38687;43.330;21.924;2023-04-30T02:10:23;12.25;;;7.05;;
52816;SDS011;38687;43.330;21.924;2023-04-30T02:12:52;8.38;;;6.60;;
52816;SDS011;38687;43.330;21.924;2023-04-30T02:15:18;7.60;;;5.95;;
52816;SDS011;38687;43.330;21.924;2023-04-30T02:17:43;10.07;;;6.43;;
52816;SDS011;38687;43.330;21.924;2023-04-30T02:20:09;9.00;;;6.55;;
52816;SDS011;38687;43.330;21.924;2023-04-30T02:22:35;8.63;;;5.85;;
52816;SDS011;38687;43.330;21.924;2023-04-30T02:25:01;11.18;;;6.93;;
52816;SDS011;38687;43.330;21.924;2023-04-30T02:27:28;10.00;;;6.85;;
52816;SDS011;38687;43.330;21.924;2023-04-30T02:29:55;7.45;;;6.10;;
52816;SDS011;38687;43.330;21.924;2023-04-30T02:32:20;8.43;;;6.40;;
52816;SDS011;38687;43.330;21.924;2023-04-30T02:34:46;8.20;;;6.03;;
52816;SDS011;38687;43.330;21.924;2023-04-30T02:37:11;7.45;;;5.95;;
52816;SDS011;38687;43.330;21.924;2023-04-30T02:39:36;9.23;;;6.13;;
52816;SDS011;38687;43.330;21.924;2023-04-30T02:42:02;8.23;;;6.68;;
52816;SDS011;38687;43.330;21.924;2023-04-30T02:44:29;9.10;;;7.13;;
52816;SDS011;38687;43.330;21.924;2023-04-30T02:46:55;9.98;;;6.45;;
52816;SDS011;38687;43.330;21.924;2023-04-30T02:49:20;11.63;;;8.45;;
52816;SDS011;38687;43.330;21.924;2023-04-30T02:51:45;11.07;;;7.32;;
52816;SDS011;38687;43.330;21.924;2023-04-30T02:54:11;12.40;;;7.93;;
52816;SDS011;38687;43.330;21.924;2023-04-30T02:56:36;11.48;;;7.15;;
52816;SDS011;38687;43.330;21.924;2023-04-30T02:59:03;12.55;;;7.50;;
52816;SDS011;38687;43.330;21.924;2023-04-30T03:01:28;11.95;;;7.28;;
52816;SDS011;38687;43.330;21.924;2023-04-30T03:03:54;9.93;;;6.80;;
52816;SDS011;38687;43.330;21.924;2023-04-30T03:06:19;9.68;;;6.82;;
52816;SDS011;38687;43.330;21.924;2023-04-30T03:08:45;9.85;;;6.32;;
52816;SDS011;38687;43.330;21.924;2023-04-30T03:11:10;11.13;;;7.45;;
52816;SDS011;38687;43.330;21.924;2023-04-30T03:13:35;10.40;;;6.50;;
52816;SDS011;38687;43.330;21.924;2023-04-30T03:16:02;8.48;;;6.53;;
52816;SDS011;38687;43.330;21.924;2023-04-30T03:18:30;8.52;;;5.97;;
52816;SDS011;38687;43.330;21.924;2023-04-30T03:20:57;10.93;;;7.60;;
52816;SDS011;38687;43.330;21.924;2023-04-30T03:23:22;12.82;;;7.40;;
52816;SDS011;38687;43.330;21.924;2023-04-30T03:25:48;13.13;;;7.38;;
52816;SDS011;38687;43.330;21.924;2023-04-30T03:28:14;10.27;;;7.15;;
52816;SDS011;38687;43.330;21.924;2023-04-30T03:30:40;11.52;;;7.45;;
52816;SDS011;38687;43.330;21.924;2023-04-30T03:33:05;9.88;;;6.82;;
52816;SDS011;38687;43.330;21.924;2023-04-30T03:35:31;9.43;;;7.15;;
52816;SDS011;38687;43.330;21.924;2023-04-30T03:37:58;10.80;;;6.68;;
52816;SDS011;38687;43.330;21.924;2023-04-30T03:40:26;9.25;;;7.65;;
52816;SDS011;38687;43.330;21.924;2023-04-30T03:42:51;9.43;;;6.10;;
52816;SDS011;38687;43.330;21.924;2023-04-30T03:45:17;9.70;;;6.75;;
52816;SDS011;38687;43.330;21.924;2023-04-30T03:47:43;10.82;;;6.78;;
52816;SDS011;38687;43.330;21.924;2023-04-30T03:50:09;11.88;;;6.05;;
52816;SDS011;38687;43.330;21.924;2023-04-30T03:52:34;11.90;;;7.32;;
52816;SDS011;38687;43.330;21.924;2023-04-30T03:55:03;9.07;;;6.72;;
52816;SDS011;38687;43.330;21.924;2023-04-30T03:57:29;9.73;;;6.35;;
52816;SDS011;38687;43.330;21.924;2023-04-30T03:59:55;10.68;;;6.78;;
52816;SDS011;38687;43.330;21.924;2023-04-30T04:02:20;11.20;;;6.68;;
52816;SDS011;38687;43.330;21.924;2023-04-30T04:04:46;15.90;;;7.47;;
52816;SDS011;38687;43.330;21.924;2023-04-30T04:07:12;12.52;;;7.65;;
52816;SDS011;38687;43.330;21.924;2023-04-30T04:09:37;13.32;;;7.47;;
52816;SDS011;38687;43.330;21.924;2023-04-30T04:12:03;10.48;;;6.70;;
52816;SDS011;38687;43.330;21.924;2023-04-30T04:14:29;11.80;;;7.30;;
52816;SDS011;38687;43.330;21.924;2023-04-30T04:16:54;9.95;;;7.72;;
52816;SDS011;38687;43.330;21.924;2023-04-30T04:19:21;10.52;;;7.68;;
52816;SDS011;38687;43.330;21.924;2023-04-30T04:21:51;10.43;;;7.65;;
52816;SDS011;38687;43.330;21.924;2023-04-30T04:24:16;9.85;;;7.53;;
52816;SDS011;38687;43.330;21.924;2023-04-30T04:26:42;12.15;;;7.38;;
52816;SDS011;38687;43.330;21.924;2023-04-30T04:29:07;10.48;;;7.30;;
52816;SDS011;38687;43.330;21.924;2023-04-30T04:31:33;32.75;;;20.23;;
52816;SDS011;38687;43.330;21.924;2023-04-30T04:33:59;22.65;;;13.93;;
52816;SDS011;38687;43.330;21.924;2023-04-30T04:36:26;9.93;;;8.02;;
52816;SDS011;38687;43.330;21.924;2023-04-30T04:38:56;10.38;;;7.63;;
52816;SDS011;38687;43.330;21.924;2023-04-30T04:41:21;12.13;;;7.57;;
52816;SDS011;38687;43.330;21.924;2023-04-30T04:43:48;13.55;;;7.60;;
52816;SDS011;38687;43.330;21.924;2023-04-30T04:46:14;11.77;;;7.82;;
52816;SDS011;38687;43.330;21.924;2023-04-30T04:48:40;10.93;;;7.50;;
52816;SDS011;38687;43.330;21.924;2023-04-30T04:51:06;12.88;;;7.30;;
52816;SDS011;38687;43.330;21.924;2023-04-30T04:53:31;12.45;;;7.00;;
52816;SDS011;38687;43.330;21.924;2023-04-30T04:55:57;13.27;;;8.98;;
52816;SDS011;38687;43.330;21.924;2023-04-30T04:58:22;14.55;;;10.05;;
52816;SDS011;38687;43.330;21.924;2023-04-30T05:00:48;14.15;;;8.15;;
52816;SDS011;38687;43.330;21.924;2023-04-30T05:03:13;14.38;;;7.88;;
52816;SDS011;38687;43.330;21.924;2023-04-30T05:05:38;13.90;;;8.45;;
52816;SDS011;38687;43.330;21.924;2023-04-30T05:08:04;12.75;;;8.95;;
52816;SDS011;38687;43.330;21.924;2023-04-30T05:10:29;13.07;;;9.45;;
52816;SDS011;38687;43.330;21.924;2023-04-30T05:12:55;14.10;;;8.48;;
52816;SDS011;38687;43.330;21.924;2023-04-30T05:15:20;15.52;;;8.98;;
52816;SDS011;38687;43.330;21.924;2023-04-30T05:17:46;15.85;;;8.48;;
52816;SDS011;38687;43.330;21.924;2023-04-30T05:20:11;15.13;;;9.32;;
52816;SDS011;38687;43.330;21.924;2023-04-30T05:22:37;14.45;;;9.57;;
52816;SDS011;38687;43.330;21.924;2023-04-30T05:25:03;12.38;;;8.75;;
52816;SDS011;38687;43.330;21.924;2023-04-30T05:27:28;17.38;;;10.48;;
52816;SDS011;38687;43.330;21.924;2023-04-30T05:29:54;16.83;;;10.38;;
52816;SDS011;38687;43.330;21.924;2023-04-30T05:32:21;16.75;;;10.00;;
52816;SDS011;38687;43.330;21.924;2023-04-30T05:34:47;17.45;;;10.98;;
52816;SDS011;38687;43.330;21.924;2023-04-30T05:37:12;16.25;;;11.07;;
52816;SDS011;38687;43.330;21.924;2023-04-30T05:39:38;17.40;;;10.65;;
52816;SDS011;38687;43.330;21.924;2023-04-30T05:42:03;18.88;;;11.18;;
52816;SDS011;38687;43.330;21.924;2023-04-30T05:44:29;26.05;;;16.58;;
52816;SDS011;38687;43.330;21.924;2023-04-30T05:46:55;25.55;;;14.25;;
52816;SDS011;38687;43.330;21.924;2023-04-30T05:49:20;21.33;;;12.93;;
52816;SDS011;38687;43.330;21.924;2023-04-30T05:51:45;23.02;;;12.60;;
52816;SDS011;38687;43.330;21.924;2023-04-30T05:54:11;24.05;;;15.40;;
52816;SDS011;38687;43.330;21.924;2023-04-30T05:56:36;19.98;;;11.82;;
52816;SDS011;38687;43.330;21.924;2023-04-30T05:59:02;16.23;;;11.55;;
52816;SDS011;38687;43.330;21.924;2023-04-30T06:01:30;20.92;;;13.07;;
52816;SDS011;38687;43.330;21.924;2023-04-30T06:03:56;25.25;;;14.55;;
52816;SDS011;38687;43.330;21.924;2023-04-30T06:06:23;25.23;;;15.80;;
52816;SDS011;38687;43.330;21.924;2023-04-30T06:08:48;25.25;;;13.73;;
52816;SDS011;38687;43.330;21.924;2023-04-30T06:11:14;18.83;;;12.18;;
52816;SDS011;38687;43.330;21.924;2023-04-30T06:13:39;19.27;;;10.70;;
52816;SDS011;38687;43.330;21.924;2023-04-30T06:16:05;138.85;;;99.50;;
52816;SDS011;38687;43.330;21.924;2023-04-30T06:18:32;35.22;;;24.88;;
52816;SDS011;38687;43.330;21.924;2023-04-30T06:21:00;18.65;;;14.18;;
52816;SDS011;38687;43.330;21.924;2023-04-30T06:23:32;17.60;;;12.43;;
52816;SDS011;38687;43.330;21.924;2023-04-30T06:26:01;22.15;;;15.80;;
52816;SDS011;38687;43.330;21.924;2023-04-30T06:28:29;26.23;;;15.57;;
52816;SDS011;38687;43.330;21.924;2023-04-30T06:30:55;20.90;;;14.02;;
52816;SDS011;38687;43.330;21.924;2023-04-30T06:33:20;16.98;;;12.38;;
52816;SDS011;38687;43.330;21.924;2023-04-30T06:35:46;19.45;;;14.80;;
52816;SDS011;38687;43.330;21.924;2023-04-30T06:38:12;19.85;;;14.82;;
52816;SDS011;38687;43.330;21.924;2023-04-30T06:40:37;20.67;;;15.32;;
52816;SDS011;38687;43.330;21.924;2023-04-30T06:43:03;25.50;;;16.58;;
52816;SDS011;38687;43.330;21.924;2023-04-30T06:45:29;14.65;;;10.68;;
52816;SDS011;38687;43.330;21.924;2023-04-30T06:48:03;15.88;;;12.15;;
52816;SDS011;38687;43.330;21.924;2023-04-30T06:50:32;18.33;;;12.63;;
52816;SDS011;38687;43.330;21.924;2023-04-30T06:52:57;16.92;;;11.80;;
52816;SDS011;38687;43.330;21.924;2023-04-30T06:55:23;17.38;;;12.65;;
52816;SDS011;38687;43.330;21.924;2023-04-30T06:57:48;21.38;;;14.07;;
52816;SDS011;38687;43.330;21.924;2023-04-30T07:00:14;22.42;;;14.15;;
52816;SDS011;38687;43.330;21.924;2023-04-30T07:02:45;15.60;;;12.15;;
52816;SDS011;38687;43.330;21.924;2023-04-30T07:05:15;19.35;;;13.68;;
52816;SDS011;38687;43.330;21.924;2023-04-30T07:07:43;19.38;;;14.68;;
52816;SDS011;38687;43.330;21.924;2023-04-30T07:10:09;22.73;;;14.88;;
52816;SDS011;38687;43.330;21.924;2023-04-30T07:12:38;20.85;;;15.65;;
52816;SDS011;38687;43.330;21.924;2023-04-30T07:15:10;23.17;;;16.98;;
52816;SDS011;38687;43.330;21.924;2023-04-30T07:17:35;24.08;;;17.02;;
52816;SDS011;38687;43.330;21.924;2023-04-30T07:20:01;27.40;;;18.13;;
52816;SDS011;38687;43.330;21.924;2023-04-30T07:22:28;23.60;;;17.48;;
52816;SDS011;38687;43.330;21.924;2023-04-30T07:24:57;30.35;;;20.13;;
52816;SDS011;38687;43.330;21.924;2023-04-30T07:27:24;32.17;;;20.05;;
52816;SDS011;38687;43.330;21.924;2023-04-30T07:29:50;28.40;;;20.70;;
52816;SDS011;38687;43.330;21.924;2023-04-30T07:32:15;29.35;;;20.10;;
52816;SDS011;38687;43.330;21.924;2023-04-30T07:34:41;29.45;;;20.60;;
52816;SDS011;38687;43.330;21.924;2023-04-30T07:37:07;29.77;;;22.05;;
52816;SDS011;38687;43.330;21.924;2023-04-30T07:39:33;30.13;;;21.15;;
52816;SDS011;38687;43.330;21.924;2023-04-30T07:42:00;35.17;;;24.38;;
52816;SDS011;38687;43.330;21.924;2023-04-30T07:44:26;34.97;;;22.75;;
52816;SDS011;38687;43.330;21.924;2023-04-30T07:46:55;32.78;;;22.92;;
52816;SDS011;38687;43.330;21.924;2023-04-30T07:49:20;32.10;;;22.52;;
52816;SDS011;38687;43.330;21.924;2023-04-30T07:51:46;34.95;;;22.38;;
52816;SDS011;38687;43.330;21.924;2023-04-30T07:54:11;27.08;;;20.58;;
52816;SDS011;38687;43.330;21.924;2023-04-30T07:56:37;35.70;;;22.23;;
52816;SDS011;38687;43.330;21.924;2023-04-30T07:59:09;27.00;;;19.20;;
52816;SDS011;38687;43.330;21.924;2023-04-30T08:01:35;27.35;;;19.88;;
52816;SDS011;38687;43.330;21.924;2023-04-30T08:04:00;29.40;;;21.17;;
52816;SDS011;38687;43.330;21.924;2023-04-30T08:06:25;33.22;;;22.23;;
52816;SDS011;38687;43.330;21.924;2023-04-30T08:08:54;20.85;;;15.45;;
52816;SDS011;38687;43.330;21.924;2023-04-30T08:11:19;18.88;;;14.27;;
52816;SDS011;38687;43.330;21.924;2023-04-30T08:13:45;16.27;;;13.10;;
52816;SDS011;38687;43.330;21.924;2023-04-30T08:16:14;17.02;;;12.45;;
52816;SDS011;38687;43.330;21.924;2023-04-30T08:18:39;22.83;;;15.13;;
52816;SDS011;38687;43.330;21.924;2023-04-30T08:21:08;20.45;;;15.13;;
52816;SDS011;38687;43.330;21.924;2023-04-30T08:23:35;20.02;;;14.85;;
52816;SDS011;38687;43.330;21.924;2023-04-30T08:26:01;23.10;;;15.63;;
52816;SDS011;38687;43.330;21.924;2023-04-30T08:28:26;20.13;;;14.55;;
52816;SDS011;38687;43.330;21.924;2023-04-30T08:30:52;25.63;;;16.45;;
52816;SDS011;38687;43.330;21.924;2023-04-30T08:33:17;21.80;;;14.63;;
52816;SDS011;38687;43.330;21.924;2023-04-30T08:35:42;22.58;;;15.55;;
52816;SDS011;38687;43.330;21.924;2023-04-30T08:38:08;22.38;;;15.25;;
52816;SDS011;38687;43.330;21.924;2023-04-30T08:40:34;19.63;;;13.75;;
52816;SDS011;38687;43.330;21.924;2023-04-30T08:43:07;21.40;;;14.93;;
52816;SDS011;38687;43.330;21.924;2023-04-30T08:45:34;18.00;;;12.98;;
52816;SDS011;38687;43.330;21.924;2023-04-30T08:48:03;17.05;;;12.07;;
52816;SDS011;38687;43.330;21.924;2023-04-30T08:50:29;15.57;;;12.52;;
52816;SDS011;38687;43.330;21.924;2023-04-30T08:53:04;18.10;;;12.60;;
52816;SDS011;38687;43.330;21.924;2023-04-30T08:55:32;16.30;;;12.35;;
52816;SDS011;38687;43.330;21.924;2023-04-30T08:57:58;15.80;;;11.80;;
52816;SDS011;38687;43.330;21.924;2023-04-30T09:00:27;15.65;;;12.85;;
52816;SDS011;38687;43.330;21.924;2023-04-30T09:02:52;13.63;;;11.32;;
52816;SDS011;38687;43.330;21.924;2023-04-30T09:05:18;17.10;;;11.77;;
52816;SDS011;38687;43.330;21.924;2023-04-30T09:07:43;15.32;;;11.73;;
52816;SDS011;38687;43.330;21.924;2023-04-30T09:10:30;15.07;;;12.52;;
52816;SDS011;38687;43.330;21.924;2023-04-30T09:12:57;14.82;;;10.48;;
52816;SDS011;38687;43.330;21.924;2023-04-30T09:15:28;16.00;;;10.00;;
52816;SDS011;38687;43.330;21.924;2023-04-30T09:18:15;12.15;;;10.02;;
52816;SDS011;38687;43.330;21.924;2023-04-30T09:20:53;13.45;;;9.20;;
52816;SDS011;38687;43.330;21.924;2023-04-30T09:23:26;10.95;;;8.98;;
52816;SDS011;38687;43.330;21.924;2023-04-30T09:25:51;11.45;;;8.52;;
52816;SDS011;38687;43.330;21.924;2023-04-30T09:28:17;12.45;;;9.07;;
52816;SDS011;38687;43.330;21.924;2023-04-30T09:30:43;11.80;;;9.13;;
52816;SDS011;38687;43.330;21.924;2023-04-30T09:33:08;12.43;;;8.40;;
52816;SDS011;38687;43.330;21.924;2023-04-30T09:35:34;11.77;;;8.98;;
52816;SDS011;38687;43.330;21.924;2023-04-30T09:38:01;23.60;;;14.73;;
52816;SDS011;38687;43.330;21.924;2023-04-30T09:40:34;18.80;;;11.80;;
52816;SDS011;38687;43.330;21.924;2023-04-30T09:43:02;15.80;;;10.82;;
52816;SDS011;38687;43.330;21.924;2023-04-30T09:48:14;11.20;;;8.45;;
52816;SDS011;38687;43.330;21.924;2023-04-30T09:50:40;10.07;;;7.07;;
52816;SDS011;38687;43.330;21.924;2023-04-30T09:53:09;10.88;;;7.60;;
52816;SDS011;38687;43.330;21.924;2023-04-30T09:55:41;9.10;;;7.00;;
52816;SDS011;38687;43.330;21.924;2023-04-30T09:58:08;14.60;;;8.35;;
52816;SDS011;38687;43.330;21.924;2023-04-30T10:00:35;10.00;;;6.80;;
52816;SDS011;38687;43.330;21.924;2023-04-30T10:03:05;13.18;;;7.65;;
52816;SDS011;38687;43.330;21.924;2023-04-30T10:05:35;11.02;;;7.03;;
52816;SDS011;38687;43.330;21.924;2023-04-30T10:08:03;10.93;;;6.85;;
52816;SDS011;38687;43.330;21.924;2023-04-30T10:10:31;7.70;;;6.22;;
52816;SDS011;38687;43.330;21.924;2023-04-30T10:12:59;7.60;;;5.53;;
52816;SDS011;38687;43.330;21.924;2023-04-30T10:15:38;7.85;;;5.78;;
52816;SDS011;38687;43.330;21.924;2023-04-30T10:18:13;12.98;;;7.28;;
52816;SDS011;38687;43.330;21.924;2023-04-30T10:20:45;7.80;;;5.32;;
52816;SDS011;38687;43.330;21.924;2023-04-30T10:23:15;8.73;;;5.07;;
52816;SDS011;38687;43.330;21.924;2023-04-30T10:25:41;5.88;;;5.20;;
52816;SDS011;38687;43.330;21.924;2023-04-30T10:28:07;5.57;;;4.85;;
52816;SDS011;38687;43.330;21.924;2023-04-30T10:30:34;6.38;;;4.07;;
52816;SDS011;38687;43.330;21.924;2023-04-30T10:38:20;5.45;;;3.72;;
52816;SDS011;38687;43.330;21.924;2023-04-30T10:40:47;4.60;;;3.38;;
52816;SDS011;38687;43.330;21.924;2023-04-30T10:43:12;3.88;;;3.03;;
52816;SDS011;38687;43.330;21.924;2023-04-30T10:45:40;3.83;;;3.25;;
52816;SDS011;38687;43.330;21.924;2023-04-30T10:48:08;3.63;;;2.63;;
52816;SDS011;38687;43.330;21.924;2023-04-30T10:50:43;3.60;;;2.28;;
52816;SDS011;38687;43.330;21.924;2023-04-30T10:53:17;6.78;;;4.10;;
52816;SDS011;38687;43.330;21.924;2023-04-30T10:55:51;4.13;;;3.28;;
52816;SDS011;38687;43.330;21.924;2023-04-30T10:58:37;5.40;;;3.83;;
52816;SDS011;38687;43.330;21.924;2023-04-30T11:03:39;3.08;;;2.50;;
52816;SDS011;38687;43.330;21.924;2023-04-30T11:06:07;3.70;;;3.10;;
52816;SDS011;38687;43.330;21.924;2023-04-30T11:08:36;4.72;;;3.00;;
52816;SDS011;38687;43.330;21.924;2023-04-30T11:11:07;7.38;;;3.03;;
52816;SDS011;38687;43.330;21.924;2023-04-30T11:16:06;5.20;;;3.05;;
52816;SDS011;38687;43.330;21.924;2023-04-30T11:18:31;5.30;;;2.97;;
52816;SDS011;38687;43.330;21.924;2023-04-30T11:20:57;21.85;;;4.55;;
52816;SDS011;38687;43.330;21.924;2023-04-30T11:23:26;4.32;;;3.17;;
52816;SDS011;38687;43.330;21.924;2023-04-30T11:25:55;3.85;;;2.80;;
52816;SDS011;38687;43.330;21.924;2023-04-30T11:28:26;3.95;;;2.72;;
52816;SDS011;38687;43.330;21.924;2023-04-30T11:30:52;3.72;;;3.08;;
52816;SDS011;38687;43.330;21.924;2023-04-30T11:33:20;3.90;;;3.50;;
52816;SDS011;38687;43.330;21.924;2023-04-30T11:35:49;3.67;;;2.92;;
52816;SDS011;38687;43.330;21.924;2023-04-30T11:38:20;3.10;;;2.80;;
52816;SDS011;38687;43.330;21.924;2023-04-30T11:40:53;6.13;;;3.58;;
52816;SDS011;38687;43.330;21.924;2023-04-30T11:48:47;5.32;;;3.38;;
52816;SDS011;38687;43.330;21.924;2023-04-30T11:51:13;5.90;;;4.35;;
52816;SDS011;38687;43.330;21.924;2023-04-30T11:53:39;3.95;;;3.42;;
52816;SDS011;38687;43.330;21.924;2023-04-30T11:56:06;4.82;;;3.42;;
52816;SDS011;38687;43.330;21.924;2023-04-30T11:58:32;4.32;;;3.60;;
52816;SDS011;38687;43.330;21.924;2023-04-30T12:00:58;3.50;;;2.90;;
52816;SDS011;38687;43.330;21.924;2023-04-30T12:03:24;3.25;;;2.25;;
52816;SDS011;38687;43.330;21.924;2023-04-30T12:05:50;3.95;;;2.65;;
52816;SDS011;38687;43.330;21.924;2023-04-30T12:08:17;2.17;;;1.60;;
52816;SDS011;38687;43.330;21.924;2023-04-30T12:10:43;1.98;;;1.70;;
52816;SDS011;38687;43.330;21.924;2023-04-30T12:13:12;3.72;;;3.05;;
52816;SDS011;38687;43.330;21.924;2023-04-30T12:15:37;3.40;;;3.10;;
52816;SDS011;38687;43.330;21.924;2023-04-30T12:18:10;5.90;;;3.85;;
52816;SDS011;38687;43.330;21.924;2023-04-30T12:20:37;6.55;;;3.60;;
52816;SDS011;38687;43.330;21.924;2023-04-30T12:23:03;9.50;;;5.03;;
52816;SDS011;38687;43.330;21.924;2023-04-30T12:25:29;3.40;;;2.72;;
52816;SDS011;38687;43.330;21.924;2023-04-30T12:27:57;4.28;;;2.10;;
52816;SDS011;38687;43.330;21.924;2023-04-30T12:30:24;4.13;;;2.90;;
52816;SDS011;38687;43.330;21.924;2023-04-30T12:32:55;4.90;;;3.90;;
52816;SDS011;38687;43.330;21.924;2023-04-30T12:35:23;4.32;;;3.38;;
52816;SDS011;38687;43.330;21.924;2023-04-30T12:37:52;4.97;;;3.88;;
52816;SDS011;38687;43.330;21.924;2023-04-30T12:40:19;4.80;;;3.17;;
52816;SDS011;38687;43.330;21.924;2023-04-30T12:42:46;4.63;;;2.42;;
52816;SDS011;38687;43.330;21.924;2023-04-30T12:45:12;2.38;;;1.65;;
52816;SDS011;38687;43.330;21.924;2023-04-30T12:47:38;2.47;;;1.77;;
52816;SDS011;38687;43.330;21.924;2023-04-30T12:52:35;3.22;;;1.90;;
52816;SDS011;38687;43.330;21.924;2023-04-30T12:55:16;2.70;;;1.75;;
52816;SDS011;38687;43.330;21.924;2023-04-30T12:58:07;6.60;;;5.25;;
52816;SDS011;38687;43.330;21.924;2023-04-30T13:00:50;5.00;;;3.85;;
52816;SDS011;38687;43.330;21.924;2023-04-30T13:03:16;3.15;;;2.22;;
52816;SDS011;38687;43.330;21.924;2023-04-30T13:05:47;3.28;;;2.38;;
52816;SDS011;38687;43.330;21.924;2023-04-30T13:08:16;2.80;;;2.58;;
52816;SDS011;38687;43.330;21.924;2023-04-30T13:10:43;7.00;;;3.55;;
52816;SDS011;38687;43.330;21.924;2023-04-30T13:13:11;4.47;;;3.60;;
52816;SDS011;38687;43.330;21.924;2023-04-30T13:15:37;3.20;;;2.50;;
52816;SDS011;38687;43.330;21.924;2023-04-30T13:18:02;5.95;;;3.08;;
52816;SDS011;38687;43.330;21.924;2023-04-30T13:20:28;4.38;;;2.15;;
52816;SDS011;38687;43.330;21.924;2023-04-30T13:22:53;3.67;;;2.50;;
52816;SDS011;38687;43.330;21.924;2023-04-30T13:25:19;4.00;;;2.60;;
52816;SDS011;38687;43.330;21.924;2023-04-30T13:27:45;2.50;;;1.98;;
52816;SDS011;38687;43.330;21.924;2023-04-30T13:30:10;3.70;;;2.55;;
52816;SDS011;38687;43.330;21.924;2023-04-30T13:32:36;4.35;;;2.00;;
52816;SDS011;38687;43.330;21.924;2023-04-30T13:35:02;2.15;;;1.95;;
52816;SDS011;38687;43.330;21.924;2023-04-30T13:37:28;3.08;;;2.30;;
52816;SDS011;38687;43.330;21.924;2023-04-30T13:39:55;4.03;;;2.33;;
52816;SDS011;38687;43.330;21.924;2023-04-30T13:42:21;3.80;;;2.78;;
52816;SDS011;38687;43.330;21.924;2023-04-30T13:44:47;3.08;;;2.60;;
52816;SDS011;38687;43.330;21.924;2023-04-30T13:47:14;3.30;;;2.50;;
52816;SDS011;38687;43.330;21.924;2023-04-30T13:49:40;3.05;;;2.72;;
52816;SDS011;38687;43.330;21.924;2023-04-30T13:52:05;4.38;;;2.85;;
52816;SDS011;38687;43.330;21.924;2023-04-30T13:54:31;3.50;;;2.90;;
52816;SDS011;38687;43.330;21.924;2023-04-30T13:56:57;2.67;;;2.40;;
52816;SDS011;38687;43.330;21.924;2023-04-30T13:59:23;2.65;;;2.08;;
52816;SDS011;38687;43.330;21.924;2023-04-30T14:01:49;3.05;;;2.75;;
52816;SDS011;38687;43.330;21.924;2023-04-30T14:04:15;6.10;;;2.70;;
52816;SDS011;38687;43.330;21.924;2023-04-30T14:06:40;2.50;;;2.30;;
52816;SDS011;38687;43.330;21.924;2023-04-30T14:09:06;3.28;;;2.50;;
52816;SDS011;38687;43.330;21.924;2023-04-30T14:11:31;3.08;;;2.50;;
52816;SDS011;38687;43.330;21.924;2023-04-30T14:13:57;2.60;;;2.40;;
52816;SDS011;38687;43.330;21.924;2023-04-30T14:16:22;2.92;;;2.20;;
52816;SDS011;38687;43.330;21.924;2023-04-30T14:18:48;2.60;;;2.40;;
52816;SDS011;38687;43.330;21.924;2023-04-30T14:21:13;6.43;;;2.80;;
52816;SDS011;38687;43.330;21.924;2023-04-30T14:23:39;4.57;;;2.70;;
52816;SDS011;38687;43.330;21.924;2023-04-30T14:26:06;3.83;;;3.03;;
52816;SDS011;38687;43.330;21.924;2023-04-30T14:28:31;3.17;;;2.85;;
52816;SDS011;38687;43.330;21.924;2023-04-30T14:30:57;5.13;;;2.58;;
52816;SDS011;38687;43.330;21.924;2023-04-30T14:33:23;4.03;;;2.85;;
52816;SDS011;38687;43.330;21.924;2023-04-30T14:35:48;5.07;;;2.85;;
52816;SDS011;38687;43.330;21.924;2023-04-30T14:38:14;3.53;;;2.30;;
52816;SDS011;38687;43.330;21.924;2023-04-30T14:40:39;7.32;;;2.80;;
52816;SDS011;38687;43.330;21.924;2023-04-30T14:43:05;4.07;;;2.80;;
52816;SDS011;38687;43.330;21.924;2023-04-30T14:45:33;3.28;;;2.20;;
52816;SDS011;38687;43.330;21.924;2023-04-30T14:47:59;2.55;;;2.35;;
52816;SDS011;38687;43.330;21.924;2023-04-30T14:50:25;5.45;;;2.58;;
52816;SDS011;38687;43.330;21.924;2023-04-30T14:52:51;3.85;;;2.80;;
52816;SDS011;38687;43.330;21.924;2023-04-30T14:55:16;3.58;;;2.53;;